sensor_id;sensor_type;location;lat;lon;timestamp;P1;durP1;ratioP1;P2;durP2;ratioP2
10517;SDS011;5307;42.548;22.968;2023-12-20T00:01:35;116.23;;;24.13;;
10517;SDS011;5307;42.548;22.968;2023-12-20T00:04:02;102.00;;;22.27;;
10517;SDS011;5307;42.548;22.968;2023-12-20T00:06:29;77.17;;;24.20;;
10517;SDS011;5307;42.548;22.968;2023-12-20T00:08:56;54.37;;;23.63;;
10517;SDS011;5307;42.548;22.968;2023-12-20T00:11:25;80.00;;;26.23;;
10517;SDS011;5307;42.548;22.968;2023-12-20T00:13:52;60.33;;;23.10;;
10517;SDS011;5307;42.548;22.968;2023-12-20T00:16:18;54.77;;;23.67;;
10517;SDS011;5307;42.548;22.968;2023-12-20T00:18:45;56.37;;;23.10;;
10517;SDS011;5307;42.548;22.968;2023-12-20T00:21:12;47.00;;;21.30;;
10517;SDS011;5307;42.548;22.968;2023-12-20T00:23:39;46.27;;;20.00;;
10517;SDS011;5307;42.548;22.968;2023-12-20T00:26:05;49.10;;;19.70;;
10517;SDS011;5307;42.548;22.968;2023-12-20T00:28:36;56.00;;;18.80;;
10517;SDS011;5307;42.548;22.968;2023-12-20T00:31:03;182.70;;;32.53;;
10517;SDS011;5307;42.548;22.968;2023-12-20T00:33:29;137.47;;;26.77;;
10517;SDS011;5307;42.548;22.968;2023-12-20T00:35:57;105.53;;;25.37;;
10517;SDS011;5307;42.548;22.968;2023-12-20T00:38:23;86.33;;;21.70;;
10517;SDS011;5307;42.548;22.968;2023-12-20T00:40:50;162.63;;;27.83;;
10517;SDS011;5307;42.548;22.968;2023-12-20T00:43:18;202.97;;;28.73;;
10517;SDS011;5307;42.548;22.968;2023-12-20T00:45:46;95.30;;;25.40;;
10517;SDS011;5307;42.548;22.968;2023-12-20T00:48:13;86.53;;;25.43;;
10517;SDS011;5307;42.548;22.968;2023-12-20T00:50:39;76.03;;;22.63;;
10517;SDS011;5307;42.548;22.968;2023-12-20T00:53:06;70.90;;;22.93;;
10517;SDS011;5307;42.548;22.968;2023-12-20T00:55:33;65.47;;;19.63;;
10517;SDS011;5307;42.548;22.968;2023-12-20T00:58:00;238.33;;;25.80;;
10517;SDS011;5307;42.548;22.968;2023-12-20T01:00:26;51.20;;;17.92;;
10517;SDS011;5307;42.548;22.968;2023-12-20T01:02:54;74.90;;;19.93;;
10517;SDS011;5307;42.548;22.968;2023-12-20T01:05:21;34.57;;;11.77;;
10517;SDS011;5307;42.548;22.968;2023-12-20T01:07:48;79.97;;;8.47;;
10517;SDS011;5307;42.548;22.968;2023-12-20T01:10:15;47.93;;;14.47;;
10517;SDS011;5307;42.548;22.968;2023-12-20T01:12:42;99.00;;;15.40;;
10517;SDS011;5307;42.548;22.968;2023-12-20T01:15:10;114.43;;;16.00;;
10517;SDS011;5307;42.548;22.968;2023-12-20T01:17:36;74.90;;;12.10;;
10517;SDS011;5307;42.548;22.968;2023-12-20T01:20:05;129.17;;;17.97;;
10517;SDS011;5307;42.548;22.968;2023-12-20T01:22:33;148.70;;;18.80;;
10517;SDS011;5307;42.548;22.968;2023-12-20T01:25:00;86.07;;;15.97;;
10517;SDS011;5307;42.548;22.968;2023-12-20T01:27:27;85.63;;;18.70;;
10517;SDS011;5307;42.548;22.968;2023-12-20T01:29:56;111.88;;;15.88;;
10517;SDS011;5307;42.548;22.968;2023-12-20T01:32:23;113.77;;;15.17;;
10517;SDS011;5307;42.548;22.968;2023-12-20T01:34:49;45.50;;;11.87;;
10517;SDS011;5307;42.548;22.968;2023-12-20T01:37:17;98.10;;;13.53;;
10517;SDS011;5307;42.548;22.968;2023-12-20T01:39:44;113.73;;;12.43;;
10517;SDS011;5307;42.548;22.968;2023-12-20T01:42:11;60.30;;;14.13;;
10517;SDS011;5307;42.548;22.968;2023-12-20T01:44:38;130.03;;;16.37;;
10517;SDS011;5307;42.548;22.968;2023-12-20T01:47:05;92.13;;;10.00;;
10517;SDS011;5307;42.548;22.968;2023-12-20T01:49:31;265.73;;;19.10;;
10517;SDS011;5307;42.548;22.968;2023-12-20T01:51:59;146.57;;;14.40;;
10517;SDS011;5307;42.548;22.968;2023-12-20T01:54:27;151.23;;;12.60;;
10517;SDS011;5307;42.548;22.968;2023-12-20T01:56:54;170.10;;;18.80;;
10517;SDS011;5307;42.548;22.968;2023-12-20T01:59:21;259.37;;;22.73;;
10517;SDS011;5307;42.548;22.968;2023-12-20T02:01:48;195.60;;;17.83;;
10517;SDS011;5307;42.548;22.968;2023-12-20T02:04:15;108.60;;;12.17;;
10517;SDS011;5307;42.548;22.968;2023-12-20T02:06:42;219.93;;;17.87;;
10517;SDS011;5307;42.548;22.968;2023-12-20T02:09:12;36.83;;;11.30;;
10517;SDS011;5307;42.548;22.968;2023-12-20T02:11:40;53.07;;;12.17;;
10517;SDS011;5307;42.548;22.968;2023-12-20T02:14:06;25.63;;;9.83;;
10517;SDS011;5307;42.548;22.968;2023-12-20T02:16:33;41.53;;;11.37;;
10517;SDS011;5307;42.548;22.968;2023-12-20T02:19:00;52.47;;;13.77;;
10517;SDS011;5307;42.548;22.968;2023-12-20T02:21:32;52.70;;;12.60;;
10517;SDS011;5307;42.548;22.968;2023-12-20T02:24:00;38.73;;;10.30;;
10517;SDS011;5307;42.548;22.968;2023-12-20T02:26:26;31.30;;;10.90;;
10517;SDS011;5307;42.548;22.968;2023-12-20T02:28:54;23.60;;;10.30;;
10517;SDS011;5307;42.548;22.968;2023-12-20T02:31:21;34.37;;;9.77;;
10517;SDS011;5307;42.548;22.968;2023-12-20T02:33:49;41.47;;;10.43;;
10517;SDS011;5307;42.548;22.968;2023-12-20T02:36:16;28.80;;;10.07;;
10517;SDS011;5307;42.548;22.968;2023-12-20T02:38:44;49.50;;;11.60;;
10517;SDS011;5307;42.548;22.968;2023-12-20T02:41:10;115.37;;;15.27;;
10517;SDS011;5307;42.548;22.968;2023-12-20T02:43:37;121.03;;;17.73;;
10517;SDS011;5307;42.548;22.968;2023-12-20T02:46:04;130.03;;;16.30;;
10517;SDS011;5307;42.548;22.968;2023-12-20T02:48:31;214.63;;;18.20;;
10517;SDS011;5307;42.548;22.968;2023-12-20T02:50:57;83.43;;;13.10;;
10517;SDS011;5307;42.548;22.968;2023-12-20T02:53:24;136.53;;;17.17;;
10517;SDS011;5307;42.548;22.968;2023-12-20T02:55:52;122.83;;;15.60;;
10517;SDS011;5307;42.548;22.968;2023-12-20T02:58:19;202.63;;;19.50;;
10517;SDS011;5307;42.548;22.968;2023-12-20T03:00:46;231.67;;;22.53;;
10517;SDS011;5307;42.548;22.968;2023-12-20T03:03:12;135.40;;;20.13;;
10517;SDS011;5307;42.548;22.968;2023-12-20T03:05:38;147.33;;;18.80;;
10517;SDS011;5307;42.548;22.968;2023-12-20T03:08:05;116.47;;;17.03;;
10517;SDS011;5307;42.548;22.968;2023-12-20T03:10:32;181.70;;;23.93;;
10517;SDS011;5307;42.548;22.968;2023-12-20T03:13:00;203.10;;;22.60;;
10517;SDS011;5307;42.548;22.968;2023-12-20T03:15:26;141.07;;;17.17;;
10517;SDS011;5307;42.548;22.968;2023-12-20T03:17:53;148.40;;;19.93;;
10517;SDS011;5307;42.548;22.968;2023-12-20T03:20:20;153.23;;;18.90;;
10517;SDS011;5307;42.548;22.968;2023-12-20T03:22:47;201.77;;;20.63;;
10517;SDS011;5307;42.548;22.968;2023-12-20T03:25:14;201.97;;;21.33;;
10517;SDS011;5307;42.548;22.968;2023-12-20T03:27:40;202.70;;;20.57;;
10517;SDS011;5307;42.548;22.968;2023-12-20T03:30:09;275.30;;;23.73;;
10517;SDS011;5307;42.548;22.968;2023-12-20T03:32:36;192.50;;;22.63;;
10517;SDS011;5307;42.548;22.968;2023-12-20T03:35:04;140.13;;;21.53;;
10517;SDS011;5307;42.548;22.968;2023-12-20T03:37:32;196.90;;;22.85;;
10517;SDS011;5307;42.548;22.968;2023-12-20T03:39:58;129.23;;;18.57;;
10517;SDS011;5307;42.548;22.968;2023-12-20T03:42:25;181.13;;;20.40;;
10517;SDS011;5307;42.548;22.968;2023-12-20T03:44:52;218.20;;;23.20;;
10517;SDS011;5307;42.548;22.968;2023-12-20T03:47:20;186.93;;;19.85;;
10517;SDS011;5307;42.548;22.968;2023-12-20T03:49:47;232.93;;;22.27;;
10517;SDS011;5307;42.548;22.968;2023-12-20T03:52:13;227.83;;;26.57;;
10517;SDS011;5307;42.548;22.968;2023-12-20T03:54:40;161.77;;;22.83;;
10517;SDS011;5307;42.548;22.968;2023-12-20T03:57:08;238.70;;;25.97;;
10517;SDS011;5307;42.548;22.968;2023-12-20T03:59:35;163.27;;;22.93;;
10517;SDS011;5307;42.548;22.968;2023-12-20T04:02:02;172.40;;;22.97;;
10517;SDS011;5307;42.548;22.968;2023-12-20T04:04:30;184.23;;;22.73;;
10517;SDS011;5307;42.548;22.968;2023-12-20T04:06:57;179.37;;;23.07;;
10517;SDS011;5307;42.548;22.968;2023-12-20T04:09:24;152.93;;;23.23;;
10517;SDS011;5307;42.548;22.968;2023-12-20T04:11:50;80.90;;;19.60;;
10517;SDS011;5307;42.548;22.968;2023-12-20T04:14:17;182.73;;;24.03;;
10517;SDS011;5307;42.548;22.968;2023-12-20T04:16:44;177.50;;;28.20;;
10517;SDS011;5307;42.548;22.968;2023-12-20T04:19:11;126.20;;;23.77;;
10517;SDS011;5307;42.548;22.968;2023-12-20T04:21:39;101.30;;;22.37;;
10517;SDS011;5307;42.548;22.968;2023-12-20T04:24:06;125.50;;;22.10;;
10517;SDS011;5307;42.548;22.968;2023-12-20T04:26:33;155.13;;;25.50;;
10517;SDS011;5307;42.548;22.968;2023-12-20T04:29:00;121.40;;;23.97;;
10517;SDS011;5307;42.548;22.968;2023-12-20T04:31:26;202.00;;;27.95;;
10517;SDS011;5307;42.548;22.968;2023-12-20T04:33:53;149.07;;;25.75;;
10517;SDS011;5307;42.548;22.968;2023-12-20T04:36:20;158.03;;;27.37;;
10517;SDS011;5307;42.548;22.968;2023-12-20T04:38:48;199.63;;;30.07;;
10517;SDS011;5307;42.548;22.968;2023-12-20T04:41:15;209.57;;;26.23;;
10517;SDS011;5307;42.548;22.968;2023-12-20T04:43:44;82.93;;;20.57;;
10517;SDS011;5307;42.548;22.968;2023-12-20T04:46:10;122.60;;;22.60;;
10517;SDS011;5307;42.548;22.968;2023-12-20T04:48:37;117.50;;;22.03;;
10517;SDS011;5307;42.548;22.968;2023-12-20T04:51:04;169.53;;;26.70;;
10517;SDS011;5307;42.548;22.968;2023-12-20T04:53:31;150.63;;;25.47;;
10517;SDS011;5307;42.548;22.968;2023-12-20T04:55:59;219.87;;;28.37;;
10517;SDS011;5307;42.548;22.968;2023-12-20T04:58:26;152.23;;;23.47;;
10517;SDS011;5307;42.548;22.968;2023-12-20T05:00:52;124.87;;;23.33;;
10517;SDS011;5307;42.548;22.968;2023-12-20T05:03:19;144.27;;;25.87;;
10517;SDS011;5307;42.548;22.968;2023-12-20T05:05:46;178.67;;;25.10;;
10517;SDS011;5307;42.548;22.968;2023-12-20T05:08:13;160.93;;;25.07;;
10517;SDS011;5307;42.548;22.968;2023-12-20T05:10:40;156.67;;;24.47;;
10517;SDS011;5307;42.548;22.968;2023-12-20T05:13:08;114.57;;;21.13;;
10517;SDS011;5307;42.548;22.968;2023-12-20T05:15:35;123.37;;;22.93;;
10517;SDS011;5307;42.548;22.968;2023-12-20T05:18:02;103.37;;;21.03;;
10517;SDS011;5307;42.548;22.968;2023-12-20T05:20:29;124.37;;;22.40;;
10517;SDS011;5307;42.548;22.968;2023-12-20T05:22:56;159.50;;;25.07;;
10517;SDS011;5307;42.548;22.968;2023-12-20T05:25:23;113.33;;;22.00;;
10517;SDS011;5307;42.548;22.968;2023-12-20T05:27:50;191.07;;;23.67;;
10517;SDS011;5307;42.548;22.968;2023-12-20T05:30:18;70.00;;;17.83;;
10517;SDS011;5307;42.548;22.968;2023-12-20T05:32:45;154.07;;;22.43;;
10517;SDS011;5307;42.548;22.968;2023-12-20T05:35:12;106.40;;;20.30;;
10517;SDS011;5307;42.548;22.968;2023-12-20T05:37:38;186.60;;;28.73;;
10517;SDS011;5307;42.548;22.968;2023-12-20T05:40:06;102.10;;;20.97;;
10517;SDS011;5307;42.548;22.968;2023-12-20T05:42:35;193.03;;;29.73;;
10517;SDS011;5307;42.548;22.968;2023-12-20T05:45:02;121.87;;;27.07;;
10517;SDS011;5307;42.548;22.968;2023-12-20T05:47:30;118.90;;;23.37;;
10517;SDS011;5307;42.548;22.968;2023-12-20T05:49:57;101.53;;;21.07;;
10517;SDS011;5307;42.548;22.968;2023-12-20T05:52:24;152.23;;;20.43;;
10517;SDS011;5307;42.548;22.968;2023-12-20T05:54:51;56.93;;;17.80;;
10517;SDS011;5307;42.548;22.968;2023-12-20T05:57:18;111.33;;;22.80;;
10517;SDS011;5307;42.548;22.968;2023-12-20T05:59:45;188.27;;;26.17;;
10517;SDS011;5307;42.548;22.968;2023-12-20T06:02:17;89.80;;;19.10;;
10517;SDS011;5307;42.548;22.968;2023-12-20T06:04:46;135.40;;;27.43;;
10517;SDS011;5307;42.548;22.968;2023-12-20T06:07:12;105.37;;;26.47;;
10517;SDS011;5307;42.548;22.968;2023-12-20T06:12:28;124.87;;;17.80;;
10517;SDS011;5307;42.548;22.968;2023-12-20T06:14:57;157.97;;;19.50;;
10517;SDS011;5307;42.548;22.968;2023-12-20T06:17:37;121.87;;;20.57;;
10517;SDS011;5307;42.548;22.968;2023-12-20T06:20:06;53.47;;;17.57;;
10517;SDS011;5307;42.548;22.968;2023-12-20T06:22:34;23.97;;;11.10;;
10517;SDS011;5307;42.548;22.968;2023-12-20T06:28:13;117.40;;;18.03;;
10517;SDS011;5307;42.548;22.968;2023-12-20T06:30:40;75.13;;;13.50;;
10517;SDS011;5307;42.548;22.968;2023-12-20T06:33:07;32.47;;;9.03;;
10517;SDS011;5307;42.548;22.968;2023-12-20T06:35:36;134.30;;;15.87;;
10517;SDS011;5307;42.548;22.968;2023-12-20T06:38:03;105.30;;;14.43;;
10517;SDS011;5307;42.548;22.968;2023-12-20T06:40:30;72.90;;;11.50;;
10517;SDS011;5307;42.548;22.968;2023-12-20T06:42:58;64.83;;;13.80;;
10517;SDS011;5307;42.548;22.968;2023-12-20T06:45:25;83.00;;;13.97;;
10517;SDS011;5307;42.548;22.968;2023-12-20T06:47:52;57.53;;;18.13;;
10517;SDS011;5307;42.548;22.968;2023-12-20T06:50:20;73.57;;;18.83;;
10517;SDS011;5307;42.548;22.968;2023-12-20T06:52:48;77.07;;;15.17;;
10517;SDS011;5307;42.548;22.968;2023-12-20T06:55:15;36.47;;;12.63;;
10517;SDS011;5307;42.548;22.968;2023-12-20T06:57:42;66.23;;;14.90;;
10517;SDS011;5307;42.548;22.968;2023-12-20T07:00:10;88.20;;;17.53;;
10517;SDS011;5307;42.548;22.968;2023-12-20T07:02:38;90.63;;;17.67;;
10517;SDS011;5307;42.548;22.968;2023-12-20T07:05:07;181.47;;;18.73;;
10517;SDS011;5307;42.548;22.968;2023-12-20T07:07:34;113.80;;;15.27;;
10517;SDS011;5307;42.548;22.968;2023-12-20T07:10:02;72.80;;;16.90;;
10517;SDS011;5307;42.548;22.968;2023-12-20T07:12:47;92.03;;;16.53;;
10517;SDS011;5307;42.548;22.968;2023-12-20T07:15:14;78.23;;;18.93;;
10517;SDS011;5307;42.548;22.968;2023-12-20T07:17:41;95.93;;;18.73;;
10517;SDS011;5307;42.548;22.968;2023-12-20T07:28:53;86.57;;;20.57;;
10517;SDS011;5307;42.548;22.968;2023-12-20T07:31:19;89.63;;;19.00;;
10517;SDS011;5307;42.548;22.968;2023-12-20T07:33:46;129.87;;;22.30;;
10517;SDS011;5307;42.548;22.968;2023-12-20T07:36:13;64.63;;;16.27;;
10517;SDS011;5307;42.548;22.968;2023-12-20T07:38:40;68.00;;;18.13;;
10517;SDS011;5307;42.548;22.968;2023-12-20T07:41:09;78.40;;;16.80;;
10517;SDS011;5307;42.548;22.968;2023-12-20T07:43:36;31.47;;;9.37;;
10517;SDS011;5307;42.548;22.968;2023-12-20T07:46:07;54.20;;;13.43;;
10517;SDS011;5307;42.548;22.968;2023-12-20T07:48:35;38.33;;;13.90;;
10517;SDS011;5307;42.548;22.968;2023-12-20T07:51:02;54.20;;;16.10;;
10517;SDS011;5307;42.548;22.968;2023-12-20T07:53:29;57.90;;;14.97;;
10517;SDS011;5307;42.548;22.968;2023-12-20T07:55:56;53.67;;;14.00;;
10517;SDS011;5307;42.548;22.968;2023-12-20T07:58:22;53.83;;;16.07;;
10517;SDS011;5307;42.548;22.968;2023-12-20T08:00:49;68.00;;;16.47;;
10517;SDS011;5307;42.548;22.968;2023-12-20T08:03:17;77.23;;;18.70;;
10517;SDS011;5307;42.548;22.968;2023-12-20T08:05:44;58.50;;;20.30;;
10517;SDS011;5307;42.548;22.968;2023-12-20T08:08:11;44.30;;;17.90;;
10517;SDS011;5307;42.548;22.968;2023-12-20T08:10:37;66.47;;;17.90;;
10517;SDS011;5307;42.548;22.968;2023-12-20T08:13:04;53.67;;;17.55;;
10517;SDS011;5307;42.548;22.968;2023-12-20T08:15:32;71.80;;;22.50;;
10517;SDS011;5307;42.548;22.968;2023-12-20T08:17:58;61.97;;;20.10;;
10517;SDS011;5307;42.548;22.968;2023-12-20T08:20:26;70.35;;;21.48;;
10517;SDS011;5307;42.548;22.968;2023-12-20T08:22:53;67.10;;;23.50;;
10517;SDS011;5307;42.548;22.968;2023-12-20T08:25:20;63.43;;;24.37;;
10517;SDS011;5307;42.548;22.968;2023-12-20T08:27:47;85.80;;;24.80;;
10517;SDS011;5307;42.548;22.968;2023-12-20T08:30:13;60.28;;;22.98;;
10517;SDS011;5307;42.548;22.968;2023-12-20T08:32:42;66.43;;;24.42;;
10517;SDS011;5307;42.548;22.968;2023-12-20T08:35:09;49.43;;;20.97;;
10517;SDS011;5307;42.548;22.968;2023-12-20T08:37:37;63.40;;;23.90;;
10517;SDS011;5307;42.548;22.968;2023-12-20T08:40:04;69.40;;;20.80;;
10517;SDS011;5307;42.548;22.968;2023-12-20T08:42:32;52.60;;;18.33;;
10517;SDS011;5307;42.548;22.968;2023-12-20T08:44:59;45.38;;;17.75;;
10517;SDS011;5307;42.548;22.968;2023-12-20T08:47:25;44.28;;;16.92;;
10517;SDS011;5307;42.548;22.968;2023-12-20T08:49:52;37.75;;;14.85;;
10517;SDS011;5307;42.548;22.968;2023-12-20T08:52:21;29.00;;;14.37;;
10517;SDS011;5307;42.548;22.968;2023-12-20T08:54:50;43.40;;;15.53;;
10517;SDS011;5307;42.548;22.968;2023-12-20T08:57:17;37.27;;;16.03;;
10517;SDS011;5307;42.548;22.968;2023-12-20T08:59:44;39.75;;;16.45;;
10517;SDS011;5307;42.548;22.968;2023-12-20T09:02:11;39.15;;;16.77;;
10517;SDS011;5307;42.548;22.968;2023-12-20T09:04:38;48.08;;;17.40;;
10517;SDS011;5307;42.548;22.968;2023-12-20T09:07:04;48.60;;;18.17;;
10517;SDS011;5307;42.548;22.968;2023-12-20T09:09:32;29.50;;;13.02;;
10517;SDS011;5307;42.548;22.968;2023-12-20T09:12:00;41.20;;;15.13;;
10517;SDS011;5307;42.548;22.968;2023-12-20T09:14:27;27.65;;;13.48;;
10517;SDS011;5307;42.548;22.968;2023-12-20T09:16:54;40.53;;;16.08;;
10517;SDS011;5307;42.548;22.968;2023-12-20T09:19:21;39.15;;;17.10;;
10517;SDS011;5307;42.548;22.968;2023-12-20T09:21:48;36.58;;;17.15;;
10517;SDS011;5307;42.548;22.968;2023-12-20T09:24:14;42.75;;;17.02;;
10517;SDS011;5307;42.548;22.968;2023-12-20T09:26:42;55.88;;;21.25;;
10517;SDS011;5307;42.548;22.968;2023-12-20T09:29:10;59.40;;;19.30;;
10517;SDS011;5307;42.548;22.968;2023-12-20T09:31:40;54.47;;;20.58;;
10517;SDS011;5307;42.548;22.968;2023-12-20T09:34:09;39.08;;;19.67;;
10517;SDS011;5307;42.548;22.968;2023-12-20T09:36:35;39.17;;;19.83;;
10517;SDS011;5307;42.548;22.968;2023-12-20T09:39:05;38.38;;;19.95;;
10517;SDS011;5307;42.548;22.968;2023-12-20T09:41:33;38.45;;;18.70;;
10517;SDS011;5307;42.548;22.968;2023-12-20T09:44:04;31.58;;;16.95;;
10517;SDS011;5307;42.548;22.968;2023-12-20T09:46:32;29.63;;;16.23;;
10517;SDS011;5307;42.548;22.968;2023-12-20T09:49:04;34.70;;;16.75;;
10517;SDS011;5307;42.548;22.968;2023-12-20T09:51:32;30.65;;;17.40;;
10517;SDS011;5307;42.548;22.968;2023-12-20T09:53:59;33.55;;;19.10;;
10517;SDS011;5307;42.548;22.968;2023-12-20T09:56:29;30.23;;;17.05;;
10517;SDS011;5307;42.548;22.968;2023-12-20T09:58:56;27.90;;;16.42;;
10517;SDS011;5307;42.548;22.968;2023-12-20T10:01:23;35.63;;;18.70;;
10517;SDS011;5307;42.548;22.968;2023-12-20T10:03:52;35.90;;;19.13;;
10517;SDS011;5307;42.548;22.968;2023-12-20T10:06:21;29.48;;;16.60;;
10517;SDS011;5307;42.548;22.968;2023-12-20T10:08:48;26.77;;;17.08;;
10517;SDS011;5307;42.548;22.968;2023-12-20T10:11:14;29.75;;;16.73;;
10517;SDS011;5307;42.548;22.968;2023-12-20T10:13:42;34.58;;;18.55;;
10517;SDS011;5307;42.548;22.968;2023-12-20T10:16:09;32.63;;;17.40;;
10517;SDS011;5307;42.548;22.968;2023-12-20T10:18:36;35.40;;;19.67;;
10517;SDS011;5307;42.548;22.968;2023-12-20T10:21:04;32.88;;;17.35;;
10517;SDS011;5307;42.548;22.968;2023-12-20T10:23:32;32.25;;;17.65;;
10517;SDS011;5307;42.548;22.968;2023-12-20T10:25:59;36.03;;;18.90;;
10517;SDS011;5307;42.548;22.968;2023-12-20T10:28:26;36.33;;;18.30;;
10517;SDS011;5307;42.548;22.968;2023-12-20T10:30:59;38.70;;;19.23;;
10517;SDS011;5307;42.548;22.968;2023-12-20T10:33:26;47.33;;;22.30;;
10517;SDS011;5307;42.548;22.968;2023-12-20T10:35:55;42.20;;;21.75;;
10517;SDS011;5307;42.548;22.968;2023-12-20T10:38:23;38.35;;;21.48;;
10517;SDS011;5307;42.548;22.968;2023-12-20T10:40:52;51.30;;;26.08;;
10517;SDS011;5307;42.548;22.968;2023-12-20T10:43:22;44.03;;;21.63;;
10517;SDS011;5307;42.548;22.968;2023-12-20T10:45:51;34.00;;;18.00;;
10517;SDS011;5307;42.548;22.968;2023-12-20T10:48:18;33.08;;;17.15;;
10517;SDS011;5307;42.548;22.968;2023-12-20T10:50:46;31.25;;;16.02;;
10517;SDS011;5307;42.548;22.968;2023-12-20T10:53:13;32.17;;;16.67;;
10517;SDS011;5307;42.548;22.968;2023-12-20T10:55:44;32.35;;;17.98;;
10517;SDS011;5307;42.548;22.968;2023-12-20T10:58:11;34.97;;;18.48;;
10517;SDS011;5307;42.548;22.968;2023-12-20T11:00:40;36.42;;;19.00;;
10517;SDS011;5307;42.548;22.968;2023-12-20T11:03:10;49.47;;;21.90;;
10517;SDS011;5307;42.548;22.968;2023-12-20T11:05:39;45.50;;;22.25;;
10517;SDS011;5307;42.548;22.968;2023-12-20T11:08:12;57.88;;;25.83;;
10517;SDS011;5307;42.548;22.968;2023-12-20T11:10:47;54.00;;;27.08;;
10517;SDS011;5307;42.548;22.968;2023-12-20T11:13:20;65.10;;;31.75;;
10517;SDS011;5307;42.548;22.968;2023-12-20T11:15:49;71.90;;;30.75;;
10517;SDS011;5307;42.548;22.968;2023-12-20T11:18:16;61.47;;;24.42;;
10517;SDS011;5307;42.548;22.968;2023-12-20T11:20:43;63.55;;;26.00;;
10517;SDS011;5307;42.548;22.968;2023-12-20T11:23:10;59.72;;;25.42;;
10517;SDS011;5307;42.548;22.968;2023-12-20T11:25:52;62.08;;;26.17;;
10517;SDS011;5307;42.548;22.968;2023-12-20T11:28:20;58.30;;;25.27;;
10517;SDS011;5307;42.548;22.968;2023-12-20T11:30:51;57.28;;;29.23;;
10517;SDS011;5307;42.548;22.968;2023-12-20T11:33:21;64.38;;;29.35;;
10517;SDS011;5307;42.548;22.968;2023-12-20T11:35:48;66.80;;;29.40;;
10517;SDS011;5307;42.548;22.968;2023-12-20T11:38:15;55.40;;;27.95;;
10517;SDS011;5307;42.548;22.968;2023-12-20T11:40:42;53.55;;;27.65;;
10517;SDS011;5307;42.548;22.968;2023-12-20T11:43:11;63.55;;;26.98;;
10517;SDS011;5307;42.548;22.968;2023-12-20T11:45:38;54.50;;;27.23;;
10517;SDS011;5307;42.548;22.968;2023-12-20T11:48:15;57.25;;;27.25;;
10517;SDS011;5307;42.548;22.968;2023-12-20T11:50:42;53.95;;;26.83;;
10517;SDS011;5307;42.548;22.968;2023-12-20T11:53:09;60.78;;;32.58;;
10517;SDS011;5307;42.548;22.968;2023-12-20T11:55:36;55.25;;;28.17;;
10517;SDS011;5307;42.548;22.968;2023-12-20T11:58:03;49.00;;;27.27;;
10517;SDS011;5307;42.548;22.968;2023-12-20T12:00:32;59.28;;;29.05;;
10517;SDS011;5307;42.548;22.968;2023-12-20T12:02:59;54.40;;;25.17;;
10517;SDS011;5307;42.548;22.968;2023-12-20T12:05:28;39.97;;;22.48;;
10517;SDS011;5307;42.548;22.968;2023-12-20T12:07:54;45.95;;;24.73;;
10517;SDS011;5307;42.548;22.968;2023-12-20T12:10:21;41.35;;;21.17;;
10517;SDS011;5307;42.548;22.968;2023-12-20T12:12:48;48.00;;;24.35;;
10517;SDS011;5307;42.548;22.968;2023-12-20T12:15:15;44.20;;;23.98;;
10517;SDS011;5307;42.548;22.968;2023-12-20T12:17:43;44.97;;;23.55;;
10517;SDS011;5307;42.548;22.968;2023-12-20T12:20:10;38.90;;;20.63;;
10517;SDS011;5307;42.548;22.968;2023-12-20T12:22:37;34.85;;;19.75;;
10517;SDS011;5307;42.548;22.968;2023-12-20T12:25:10;43.33;;;21.67;;
10517;SDS011;5307;42.548;22.968;2023-12-20T12:27:39;40.13;;;21.48;;
10517;SDS011;5307;42.548;22.968;2023-12-20T12:30:08;41.90;;;21.67;;
10517;SDS011;5307;42.548;22.968;2023-12-20T12:32:38;50.47;;;23.20;;
10517;SDS011;5307;42.548;22.968;2023-12-20T12:35:07;47.05;;;23.33;;
10517;SDS011;5307;42.548;22.968;2023-12-20T12:37:36;48.20;;;22.48;;
10517;SDS011;5307;42.548;22.968;2023-12-20T12:40:06;72.35;;;19.92;;
10517;SDS011;5307;42.548;22.968;2023-12-20T12:42:33;49.20;;;20.33;;
10517;SDS011;5307;42.548;22.968;2023-12-20T12:45:00;56.83;;;23.42;;
10517;SDS011;5307;42.548;22.968;2023-12-20T12:47:27;103.57;;;22.15;;
10517;SDS011;5307;42.548;22.968;2023-12-20T12:49:54;91.13;;;21.65;;
10517;SDS011;5307;42.548;22.968;2023-12-20T12:52:22;76.82;;;21.00;;
10517;SDS011;5307;42.548;22.968;2023-12-20T12:54:49;86.63;;;24.15;;
10517;SDS011;5307;42.548;22.968;2023-12-20T12:57:16;87.88;;;22.48;;
10517;SDS011;5307;42.548;22.968;2023-12-20T12:59:43;85.35;;;24.67;;
10517;SDS011;5307;42.548;22.968;2023-12-20T13:02:11;72.32;;;28.67;;
10517;SDS011;5307;42.548;22.968;2023-12-20T13:04:38;98.63;;;43.67;;
10517;SDS011;5307;42.548;22.968;2023-12-20T13:07:06;95.82;;;30.77;;
10517;SDS011;5307;42.548;22.968;2023-12-20T13:09:37;113.72;;;46.58;;
10517;SDS011;5307;42.548;22.968;2023-12-20T13:12:04;82.38;;;37.42;;
10517;SDS011;5307;42.548;22.968;2023-12-20T13:14:31;81.25;;;36.05;;
10517;SDS011;5307;42.548;22.968;2023-12-20T13:16:59;74.90;;;31.92;;
10517;SDS011;5307;42.548;22.968;2023-12-20T13:19:26;81.75;;;29.33;;
10517;SDS011;5307;42.548;22.968;2023-12-20T13:21:53;73.05;;;31.83;;
10517;SDS011;5307;42.548;22.968;2023-12-20T13:24:20;64.43;;;31.05;;
10517;SDS011;5307;42.548;22.968;2023-12-20T13:26:48;68.32;;;32.22;;
10517;SDS011;5307;42.548;22.968;2023-12-20T13:29:15;68.30;;;31.63;;
10517;SDS011;5307;42.548;22.968;2023-12-20T13:31:41;63.90;;;31.10;;
10517;SDS011;5307;42.548;22.968;2023-12-20T13:34:08;65.43;;;32.97;;
10517;SDS011;5307;42.548;22.968;2023-12-20T13:36:36;64.68;;;33.45;;
10517;SDS011;5307;42.548;22.968;2023-12-20T13:39:03;64.78;;;31.77;;
10517;SDS011;5307;42.548;22.968;2023-12-20T13:41:30;62.30;;;30.92;;
10517;SDS011;5307;42.548;22.968;2023-12-20T13:43:58;63.65;;;32.70;;
10517;SDS011;5307;42.548;22.968;2023-12-20T13:46:26;65.30;;;32.72;;
10517;SDS011;5307;42.548;22.968;2023-12-20T13:48:53;60.35;;;32.22;;
10517;SDS011;5307;42.548;22.968;2023-12-20T13:51:20;66.32;;;32.72;;
10517;SDS011;5307;42.548;22.968;2023-12-20T13:53:47;70.32;;;35.03;;
10517;SDS011;5307;42.548;22.968;2023-12-20T13:56:14;71.20;;;35.53;;
10517;SDS011;5307;42.548;22.968;2023-12-20T13:58:40;68.72;;;36.13;;
10517;SDS011;5307;42.548;22.968;2023-12-20T14:01:09;72.95;;;39.13;;
10517;SDS011;5307;42.548;22.968;2023-12-20T14:03:36;65.80;;;36.30;;
10517;SDS011;5307;42.548;22.968;2023-12-20T14:06:03;81.13;;;41.10;;
10517;SDS011;5307;42.548;22.968;2023-12-20T14:08:30;99.47;;;46.20;;
10517;SDS011;5307;42.548;22.968;2023-12-20T14:10:57;98.65;;;48.65;;
10517;SDS011;5307;42.548;22.968;2023-12-20T14:13:24;78.68;;;41.13;;
10517;SDS011;5307;42.548;22.968;2023-12-20T14:15:50;87.55;;;40.20;;
10517;SDS011;5307;42.548;22.968;2023-12-20T14:18:20;79.13;;;37.22;;
10517;SDS011;5307;42.548;22.968;2023-12-20T14:20:47;73.97;;;34.78;;
10517;SDS011;5307;42.548;22.968;2023-12-20T14:23:15;67.90;;;32.83;;
10517;SDS011;5307;42.548;22.968;2023-12-20T14:25:44;54.85;;;30.77;;
10517;SDS011;5307;42.548;22.968;2023-12-20T14:28:11;64.72;;;29.67;;
10517;SDS011;5307;42.548;22.968;2023-12-20T14:30:39;56.28;;;27.25;;
10517;SDS011;5307;42.548;22.968;2023-12-20T14:33:06;57.30;;;31.17;;
10517;SDS011;5307;42.548;22.968;2023-12-20T14:35:34;69.15;;;38.03;;